<?xml version="1.0" encoding="UTF-8" standalone="no" ?>
<gpx xmlns="http://www.topografix.com/GPX/1/1" xmlns:xsi="http://www.w3.org/2001/XMLSchema-instance" xsi:schemaLocation="http://www.topografix.com/GPX/1/1 http://www.topografix.com/GPX/1/1/gpx.xsd" version="1.1" creator="VisuGPX - https://www.visugpx.com">
  <metadata>
    <name>ARQUES LA SEYNE SUR MER 1497 KM</name>
    <desc><![CDATA[Rando de Arques dans le Pas de Calais jusque La Seyne sur Mer dans le Var, 1497 km]]></desc>
  </metadata>
  <trk>
    <name><![CDATA[21 - BAR SUR AUBE MARANVILLE 24.2 KM]]></name>
    <extensions>
      <line xmlns="http://www.topografix.com/GPX/gpx_style/0/2">
        <color>008800</color>
        <width>4</width>
      </line>
    </extensions>
    <trkseg>
      <trkpt lat="48.23082" lon="4.71083">
        <ele>166</ele>
        <time>2021-11-05T15:19:54+01:00</time>
      </trkpt>
      <trkpt lat="48.23052" lon="4.7089">
        <ele>166</ele>
        <time>2021-11-05T15:19:59+01:00</time>
      </trkpt>
      <trkpt lat="48.23052" lon="4.70781">
        <ele>166</ele>
        <time>2021-11-05T15:20:04+01:00</time>
      </trkpt>
      <trkpt lat="48.23128" lon="4.70578">
        <ele>167</ele>
        <time>2021-11-05T15:20:09+01:00</time>
      </trkpt>
      <trkpt lat="48.23127" lon="4.70515">
        <ele>166</ele>
        <time>2021-11-05T15:20:14+01:00</time>
      </trkpt>
      <trkpt lat="48.23109" lon="4.70467">
        <ele>165</ele>
        <time>2021-11-05T15:20:19+01:00</time>
      </trkpt>
      <trkpt lat="48.23115" lon="4.70433">
        <ele>166</ele>
        <time>2021-11-05T15:20:24+01:00</time>
      </trkpt>
      <trkpt lat="48.23065" lon="4.70424">
        <ele>166</ele>
        <time>2021-11-05T15:20:29+01:00</time>
      </trkpt>
      <trkpt lat="48.22986" lon="4.70327">
        <ele>169</ele>
        <time>2021-11-05T15:20:34+01:00</time>
      </trkpt>
      <trkpt lat="48.22906" lon="4.70234">
        <ele>182</ele>
        <time>2021-11-05T15:20:39+01:00</time>
      </trkpt>
      <trkpt lat="48.22781" lon="4.70137">
        <ele>199</ele>
        <time>2021-11-05T15:20:44+01:00</time>
      </trkpt>
      <trkpt lat="48.22676" lon="4.70064">
        <ele>214</ele>
        <time>2021-11-05T15:20:49+01:00</time>
      </trkpt>
      <trkpt lat="48.22548" lon="4.69942">
        <ele>230</ele>
        <time>2021-11-05T15:20:54+01:00</time>
      </trkpt>
      <trkpt lat="48.22464" lon="4.69934">
        <ele>247</ele>
        <time>2021-11-05T15:20:59+01:00</time>
      </trkpt>
      <trkpt lat="48.22447" lon="4.70047">
        <ele>246</ele>
        <time>2021-11-05T15:21:04+01:00</time>
      </trkpt>
      <trkpt lat="48.2222" lon="4.69898">
        <ele>302</ele>
        <time>2021-11-05T15:21:09+01:00</time>
      </trkpt>
      <trkpt lat="48.21932" lon="4.69883">
        <ele>310</ele>
        <time>2021-11-05T15:21:14+01:00</time>
      </trkpt>
      <trkpt lat="48.21929" lon="4.69682">
        <ele>309</ele>
        <time>2021-11-05T15:21:19+01:00</time>
      </trkpt>
      <trkpt lat="48.21874" lon="4.69692">
        <ele>314</ele>
        <time>2021-11-05T15:21:24+01:00</time>
      </trkpt>
      <trkpt lat="48.21602" lon="4.69646">
        <ele>319</ele>
        <time>2021-11-05T15:21:29+01:00</time>
      </trkpt>
      <trkpt lat="48.21482" lon="4.69733">
        <ele>320</ele>
        <time>2021-11-05T15:21:34+01:00</time>
      </trkpt>
      <trkpt lat="48.21379" lon="4.69841">
        <ele>324</ele>
        <time>2021-11-05T15:21:39+01:00</time>
      </trkpt>
      <trkpt lat="48.21266" lon="4.69841">
        <ele>327</ele>
        <time>2021-11-05T15:21:44+01:00</time>
      </trkpt>
      <trkpt lat="48.2116" lon="4.69883">
        <ele>333</ele>
        <time>2021-11-05T15:21:49+01:00</time>
      </trkpt>
      <trkpt lat="48.20847" lon="4.69903">
        <ele>340</ele>
        <time>2021-11-05T15:21:54+01:00</time>
      </trkpt>
      <trkpt lat="48.20731" lon="4.69919">
        <ele>342</ele>
        <time>2021-11-05T15:21:59+01:00</time>
      </trkpt>
      <trkpt lat="48.20607" lon="4.69965">
        <ele>339</ele>
        <time>2021-11-05T15:22:04+01:00</time>
      </trkpt>
      <trkpt lat="48.20391" lon="4.69949">
        <ele>343</ele>
        <time>2021-11-05T15:22:09+01:00</time>
      </trkpt>
      <trkpt lat="48.20175" lon="4.69908">
        <ele>346</ele>
        <time>2021-11-05T15:22:14+01:00</time>
      </trkpt>
      <trkpt lat="48.19979" lon="4.69883">
        <ele>350</ele>
        <time>2021-11-05T15:22:19+01:00</time>
      </trkpt>
      <trkpt lat="48.19635" lon="4.69924">
        <ele>343</ele>
        <time>2021-11-05T15:22:24+01:00</time>
      </trkpt>
      <trkpt lat="48.19333" lon="4.70078">
        <ele>337</ele>
        <time>2021-11-05T15:22:29+01:00</time>
      </trkpt>
      <trkpt lat="48.1934" lon="4.70511">
        <ele>336</ele>
        <time>2021-11-05T15:22:34+01:00</time>
      </trkpt>
      <trkpt lat="48.19409" lon="4.70985">
        <ele>311</ele>
        <time>2021-11-05T15:22:39+01:00</time>
      </trkpt>
      <trkpt lat="48.19488" lon="4.7133">
        <ele>276</ele>
        <time>2021-11-05T15:22:44+01:00</time>
      </trkpt>
      <trkpt lat="48.19405" lon="4.7149">
        <ele>261</ele>
        <time>2021-11-05T15:22:49+01:00</time>
      </trkpt>
      <trkpt lat="48.19385" lon="4.71804">
        <ele>237</ele>
        <time>2021-11-05T15:22:54+01:00</time>
      </trkpt>
      <trkpt lat="48.19288" lon="4.71951">
        <ele>224</ele>
        <time>2021-11-05T15:22:59+01:00</time>
      </trkpt>
      <trkpt lat="48.19295" lon="4.72174">
        <ele>220</ele>
        <time>2021-11-05T15:23:04+01:00</time>
      </trkpt>
      <trkpt lat="48.19217" lon="4.7222">
        <ele>220</ele>
        <time>2021-11-05T15:23:09+01:00</time>
      </trkpt>
      <trkpt lat="48.19131" lon="4.72336">
        <ele>226</ele>
        <time>2021-11-05T15:23:14+01:00</time>
      </trkpt>
      <trkpt lat="48.18998" lon="4.72461">
        <ele>234</ele>
        <time>2021-11-05T15:23:19+01:00</time>
      </trkpt>
      <trkpt lat="48.18843" lon="4.72679">
        <ele>262</ele>
        <time>2021-11-05T15:23:24+01:00</time>
      </trkpt>
      <trkpt lat="48.18698" lon="4.7273">
        <ele>256</ele>
        <time>2021-11-05T15:23:29+01:00</time>
      </trkpt>
      <trkpt lat="48.18633" lon="4.728">
        <ele>249</ele>
        <time>2021-11-05T15:23:34+01:00</time>
      </trkpt>
      <trkpt lat="48.18556" lon="4.73018">
        <ele>240</ele>
        <time>2021-11-05T15:23:39+01:00</time>
      </trkpt>
      <trkpt lat="48.18308" lon="4.73398">
        <ele>244</ele>
        <time>2021-11-05T15:23:44+01:00</time>
      </trkpt>
      <trkpt lat="48.18017" lon="4.73667">
        <ele>251</ele>
        <time>2021-11-05T15:23:49+01:00</time>
      </trkpt>
      <trkpt lat="48.17835" lon="4.73913">
        <ele>291</ele>
        <time>2021-11-05T15:23:54+01:00</time>
      </trkpt>
      <trkpt lat="48.17637" lon="4.7408">
        <ele>290</ele>
        <time>2021-11-05T15:23:59+01:00</time>
      </trkpt>
      <trkpt lat="48.16954" lon="4.74859">
        <ele>272</ele>
        <time>2021-11-05T15:24:04+01:00</time>
      </trkpt>
      <trkpt lat="48.16143" lon="4.75777">
        <ele>287</ele>
        <time>2021-11-05T15:24:09+01:00</time>
      </trkpt>
      <trkpt lat="48.15849" lon="4.75647">
        <ele>291</ele>
        <time>2021-11-05T15:24:14+01:00</time>
      </trkpt>
      <trkpt lat="48.15722" lon="4.75736">
        <ele>291</ele>
        <time>2021-11-05T15:24:19+01:00</time>
      </trkpt>
      <trkpt lat="48.15661" lon="4.75972">
        <ele>287</ele>
        <time>2021-11-05T15:24:24+01:00</time>
      </trkpt>
      <trkpt lat="48.15534" lon="4.76093">
        <ele>284</ele>
        <time>2021-11-05T15:24:29+01:00</time>
      </trkpt>
      <trkpt lat="48.15558" lon="4.7645">
        <ele>270</ele>
        <time>2021-11-05T15:24:34+01:00</time>
      </trkpt>
      <trkpt lat="48.15255" lon="4.76552">
        <ele>259</ele>
        <time>2021-11-05T15:24:39+01:00</time>
      </trkpt>
      <trkpt lat="48.15166" lon="4.767">
        <ele>252</ele>
        <time>2021-11-05T15:24:44+01:00</time>
      </trkpt>
      <trkpt lat="48.14958" lon="4.769">
        <ele>243</ele>
        <time>2021-11-05T15:24:49+01:00</time>
      </trkpt>
      <trkpt lat="48.14791" lon="4.76886">
        <ele>234</ele>
        <time>2021-11-05T15:24:54+01:00</time>
      </trkpt>
      <trkpt lat="48.14655" lon="4.76946">
        <ele>219</ele>
        <time>2021-11-05T15:24:59+01:00</time>
      </trkpt>
      <trkpt lat="48.1455" lon="4.77322">
        <ele>214</ele>
        <time>2021-11-05T15:25:04+01:00</time>
      </trkpt>
      <trkpt lat="48.14612" lon="4.77869">
        <ele>208</ele>
        <time>2021-11-05T15:25:09+01:00</time>
      </trkpt>
      <trkpt lat="48.14534" lon="4.77948">
        <ele>196</ele>
        <time>2021-11-05T15:25:14+01:00</time>
      </trkpt>
      <trkpt lat="48.14432" lon="4.78096">
        <ele>196</ele>
        <time>2021-11-05T15:25:19+01:00</time>
      </trkpt>
      <trkpt lat="48.14448" lon="4.78235">
        <ele>199</ele>
        <time>2021-11-05T15:25:24+01:00</time>
      </trkpt>
      <trkpt lat="48.1451" lon="4.78296">
        <ele>194</ele>
        <time>2021-11-05T15:25:29+01:00</time>
      </trkpt>
      <trkpt lat="48.14578" lon="4.78616">
        <ele>192</ele>
        <time>2021-11-05T15:25:34+01:00</time>
      </trkpt>
      <trkpt lat="48.1454" lon="4.78648">
        <ele>197</ele>
        <time>2021-11-05T15:25:39+01:00</time>
      </trkpt>
      <trkpt lat="48.1454" lon="4.78968">
        <ele>195</ele>
        <time>2021-11-05T15:25:44+01:00</time>
      </trkpt>
      <trkpt lat="48.1459" lon="4.79297">
        <ele>189</ele>
        <time>2021-11-05T15:25:49+01:00</time>
      </trkpt>
      <trkpt lat="48.14426" lon="4.7978">
        <ele>189</ele>
        <time>2021-11-05T15:25:54+01:00</time>
      </trkpt>
      <trkpt lat="48.14333" lon="4.80253">
        <ele>198</ele>
        <time>2021-11-05T15:25:59+01:00</time>
      </trkpt>
      <trkpt lat="48.14311" lon="4.80383">
        <ele>205</ele>
        <time>2021-11-05T15:26:04+01:00</time>
      </trkpt>
      <trkpt lat="48.14073" lon="4.80378">
        <ele>194</ele>
        <time>2021-11-05T15:26:09+01:00</time>
      </trkpt>
      <trkpt lat="48.13949" lon="4.80434">
        <ele>208</ele>
        <time>2021-11-05T15:26:14+01:00</time>
      </trkpt>
      <trkpt lat="48.13909" lon="4.80457">
        <ele>214</ele>
        <time>2021-11-05T15:26:19+01:00</time>
      </trkpt>
      <trkpt lat="48.13299" lon="4.80703">
        <ele>291</ele>
        <time>2021-11-05T15:26:24+01:00</time>
      </trkpt>
      <trkpt lat="48.13225" lon="4.80907">
        <ele>295</ele>
        <time>2021-11-05T15:26:29+01:00</time>
      </trkpt>
      <trkpt lat="48.13098" lon="4.81078">
        <ele>299</ele>
        <time>2021-11-05T15:26:34+01:00</time>
      </trkpt>
      <trkpt lat="48.13015" lon="4.81407">
        <ele>311</ele>
        <time>2021-11-05T15:26:39+01:00</time>
      </trkpt>
      <trkpt lat="48.1286" lon="4.81649">
        <ele>309</ele>
        <time>2021-11-05T15:26:44+01:00</time>
      </trkpt>
      <trkpt lat="48.12724" lon="4.8176">
        <ele>306</ele>
        <time>2021-11-05T15:26:49+01:00</time>
      </trkpt>
      <trkpt lat="48.12591" lon="4.82098">
        <ele>303</ele>
        <time>2021-11-05T15:26:54+01:00</time>
      </trkpt>
      <trkpt lat="48.12934" lon="4.8291">
        <ele>239</ele>
        <time>2021-11-05T15:26:59+01:00</time>
      </trkpt>
      <trkpt lat="48.13049" lon="4.83263">
        <ele>273</ele>
        <time>2021-11-05T15:27:04+01:00</time>
      </trkpt>
      <trkpt lat="48.1334" lon="4.8393">
        <ele>314</ele>
        <time>2021-11-05T15:27:09+01:00</time>
      </trkpt>
      <trkpt lat="48.12978" lon="4.83559">
        <ele>304</ele>
        <time>2021-11-05T15:27:14+01:00</time>
      </trkpt>
      <trkpt lat="48.12947" lon="4.83745">
        <ele>305</ele>
        <time>2021-11-05T15:27:19+01:00</time>
      </trkpt>
      <trkpt lat="48.12851" lon="4.84083">
        <ele>316</ele>
        <time>2021-11-05T15:27:24+01:00</time>
      </trkpt>
      <trkpt lat="48.12913" lon="4.84454">
        <ele>330</ele>
        <time>2021-11-05T15:27:29+01:00</time>
      </trkpt>
      <trkpt lat="48.12603" lon="4.84505">
        <ele>326</ele>
        <time>2021-11-05T15:27:34+01:00</time>
      </trkpt>
      <trkpt lat="48.12649" lon="4.85679">
        <ele>336</ele>
        <time>2021-11-05T15:27:39+01:00</time>
      </trkpt>
      <trkpt lat="48.12763" lon="4.85816">
        <ele>327</ele>
        <time>2021-11-05T15:27:44+01:00</time>
      </trkpt>
      <trkpt lat="48.12903" lon="4.86159">
        <ele>280</ele>
        <time>2021-11-05T15:27:49+01:00</time>
      </trkpt>
      <trkpt lat="48.13049" lon="4.86318">
        <ele>255</ele>
        <time>2021-11-05T15:27:54+01:00</time>
      </trkpt>
      <trkpt lat="48.13293" lon="4.86151">
        <ele>234</ele>
        <time>2021-11-05T15:27:59+01:00</time>
      </trkpt>
      <trkpt lat="48.13604" lon="4.86085">
        <ele>204</ele>
        <time>2021-11-05T15:28:04+01:00</time>
      </trkpt>
      <trkpt lat="48.13631" lon="4.86029">
        <ele>203</ele>
        <time>2021-11-05T15:28:09+01:00</time>
      </trkpt>
    </trkseg>
  </trk>
</gpx>